createdAt,value
2023-01-25T00:01:16.501Z,8.35
2023-01-25T00:04:20.625Z,7.95
2023-01-25T00:07:23.466Z,7.78
2023-01-25T00:10:27.830Z,7.43
2023-01-25T00:13:30.714Z,7.95
2023-01-25T00:16:33.817Z,8.85
2023-01-25T00:19:36.666Z,8.15
2023-01-25T00:22:39.702Z,7.43
2023-01-25T00:25:43.879Z,8.95
2023-01-25T00:28:50.244Z,8.45
2023-01-25T00:32:03.852Z,9.82
2023-01-25T00:35:13.158Z,8.35
2023-01-25T00:38:29.776Z,7.90
2023-01-25T00:41:34.428Z,8.88
2023-01-25T00:44:37.381Z,9.15
2023-01-25T00:47:40.455Z,8.18
2023-01-25T00:50:43.287Z,7.30
2023-01-25T00:53:46.402Z,7.80
2023-01-25T00:56:52.417Z,8.40
2023-01-25T00:59:55.378Z,8.23
2023-01-25T01:02:58.538Z,7.60
2023-01-25T01:06:03.758Z,8.35
2023-01-25T01:09:07.649Z,8.55
2023-01-25T01:12:12.031Z,6.65
2023-01-25T01:15:14.911Z,7.55
2023-01-25T01:18:17.762Z,7.90
2023-01-25T01:21:21.696Z,8.40
2023-01-25T01:24:24.720Z,7.72
2023-01-25T01:27:29.002Z,7.80
2023-01-25T01:30:31.806Z,6.55
2023-01-25T01:33:36.132Z,8.60
2023-01-25T01:36:39.165Z,6.97
2023-01-25T01:39:42.112Z,7.47
2023-01-25T01:43:00.660Z,6.35
2023-01-25T01:46:05.904Z,8.43
2023-01-25T01:49:17.478Z,7.47
2023-01-25T01:52:24.590Z,7.18
2023-01-25T01:55:29.130Z,12.90
2023-01-25T01:58:34.021Z,7.80
2023-01-25T02:01:37.224Z,8.98
2023-01-25T02:04:40.142Z,8.00
2023-01-25T02:07:52.046Z,7.97
2023-01-25T02:10:55.966Z,6.55
2023-01-25T02:14:01.600Z,7.22
2023-01-25T02:17:05.212Z,6.13
2023-01-25T02:20:15.029Z,7.57
2023-01-25T02:23:23.275Z,8.35
2023-01-25T02:26:27.844Z,7.03
2023-01-25T02:29:31.352Z,7.18
2023-01-25T02:32:35.011Z,6.90
2023-01-25T02:35:41.969Z,7.22
2023-01-25T02:38:49.379Z,6.65
2023-01-25T02:41:53.840Z,6.88
2023-01-25T02:44:57.014Z,5.78
2023-01-25T02:48:00.817Z,7.25
2023-01-25T02:51:04.329Z,7.22
2023-01-25T02:54:09.134Z,7.72
2023-01-25T02:57:13.430Z,7.13
2023-01-25T03:00:21.141Z,7.43
2023-01-25T03:03:23.950Z,6.40
2023-01-25T03:06:26.988Z,7.03
2023-01-25T03:09:30.355Z,6.00
2023-01-25T03:12:34.603Z,6.72
2023-01-25T03:15:37.386Z,7.20
2023-01-25T03:18:41.558Z,6.90
2023-01-25T03:21:44.359Z,5.97
2023-01-25T03:24:47.322Z,6.43
2023-01-25T03:27:51.742Z,7.22
2023-01-25T03:30:54.728Z,6.15
2023-01-25T03:33:57.639Z,6.65
2023-01-25T03:37:05.350Z,5.93
2023-01-25T03:40:11.647Z,5.68
2023-01-25T03:43:21.330Z,5.97
2023-01-25T03:46:26.676Z,5.72
2023-01-25T03:49:29.862Z,6.47
2023-01-25T03:52:38.528Z,6.10
2023-01-25T03:55:43.875Z,5.97
2023-01-25T03:58:48.266Z,7.85
2023-01-25T04:01:51.281Z,7.25
2023-01-25T04:04:55.213Z,7.22
2023-01-25T04:07:58.445Z,5.90
2023-01-25T04:11:11.137Z,5.15
2023-01-25T04:14:15.626Z,6.63
2023-01-25T04:17:31.797Z,7.10
2023-01-25T04:20:37.706Z,5.93
2023-01-25T04:23:40.665Z,5.43
2023-01-25T04:26:43.497Z,5.90
2023-01-25T04:29:47.799Z,6.38
2023-01-25T04:32:55.246Z,6.72
2023-01-25T04:36:06.149Z,7.68
2023-01-25T04:39:09.086Z,5.60
2023-01-25T04:42:13.368Z,5.85
2023-01-25T04:45:18.241Z,6.25
2023-01-25T04:48:21.479Z,5.60
2023-01-25T04:51:30.424Z,6.25
2023-01-25T04:54:33.917Z,6.00
2023-01-25T04:57:36.983Z,6.30
2023-01-25T05:00:41.301Z,6.28
2023-01-25T05:03:44.612Z,5.82
2023-01-25T05:06:57.141Z,5.80
2023-01-25T05:10:01.275Z,5.50
2023-01-25T05:13:04.142Z,6.18
2023-01-25T05:16:09.833Z,5.53
2023-01-25T05:19:13.747Z,7.43
2023-01-25T05:22:29.335Z,6.68
2023-01-25T05:25:50.700Z,5.60
2023-01-25T05:29:01.214Z,4.75
2023-01-25T05:32:20.880Z,4.85
2023-01-25T05:35:23.769Z,6.75
2023-01-25T05:38:31.370Z,5.63
2023-01-25T05:41:35.260Z,5.28
2023-01-25T05:44:39.004Z,5.45
2023-01-25T05:47:43.958Z,5.38
2023-01-25T05:50:47.096Z,6.10
2023-01-25T05:53:56.588Z,5.65
2023-01-25T05:57:00.613Z,6.40
2023-01-25T06:00:04.590Z,5.40
2023-01-25T06:03:17.782Z,4.82
2023-01-25T06:06:22.575Z,5.05
2023-01-25T06:09:26.372Z,4.60
2023-01-25T06:12:29.583Z,4.80
2023-01-25T06:15:34.525Z,4.78
2023-01-25T06:19:01.758Z,7.53
2023-01-25T06:22:30.518Z,5.63
2023-01-25T06:25:33.445Z,5.70
2023-01-25T06:28:37.549Z,6.28
2023-01-25T06:31:40.477Z,5.05
2023-01-25T06:34:46.378Z,6.18
2023-01-25T06:37:56.707Z,5.32
2023-01-25T06:41:02.934Z,5.50
2023-01-25T06:44:06.085Z,5.78
2023-01-25T06:47:10.036Z,4.30
2023-01-25T06:50:14.470Z,6.15
2023-01-25T06:53:17.458Z,6.78
2023-01-25T06:56:22.279Z,4.88
2023-01-25T06:59:25.246Z,5.35
2023-01-25T07:02:28.452Z,9.07
2023-01-25T07:05:32.758Z,8.00
2023-01-25T07:08:36.485Z,15.50
2023-01-25T07:11:39.364Z,13.95
2023-01-25T07:14:42.270Z,9.57
2023-01-25T07:17:45.230Z,11.20
2023-01-25T07:20:49.591Z,5.80
2023-01-25T07:23:52.929Z,9.45
2023-01-25T07:26:56.230Z,10.40
2023-01-25T07:29:59.138Z,9.65
2023-01-25T07:33:01.954Z,12.77
2023-01-25T07:36:08.823Z,9.02
2023-01-25T07:39:12.680Z,7.65
2023-01-25T07:42:15.762Z,11.05
2023-01-25T07:45:30.274Z,9.20
2023-01-25T07:48:33.395Z,8.57
2023-01-25T07:51:37.589Z,10.85
2023-01-25T07:54:40.437Z,8.88
2023-01-25T07:57:43.331Z,9.05
2023-01-25T08:00:46.387Z,11.30
2023-01-25T08:03:50.389Z,11.48
2023-01-25T08:06:54.697Z,12.73
2023-01-25T08:09:57.490Z,11.45
2023-01-25T08:13:00.584Z,15.07
2023-01-25T08:16:03.599Z,14.82
2023-01-25T08:19:06.657Z,20.75
2023-01-25T08:22:13.147Z,15.50
2023-01-25T08:25:16.038Z,14.77
2023-01-25T08:28:18.876Z,14.68
2023-01-25T08:31:23.517Z,18.85
2023-01-25T08:34:26.442Z,16.48
2023-01-25T08:37:30.630Z,15.15
2023-01-25T08:40:35.861Z,15.88
2023-01-25T08:43:41.463Z,19.15
2023-01-25T08:46:45.749Z,16.50
2023-01-25T08:49:48.848Z,19.88
2023-01-25T08:52:53.043Z,20.65
2023-01-25T08:55:56.034Z,20.05
2023-01-25T08:58:58.849Z,23.85
2023-01-25T09:02:01.727Z,19.88
2023-01-25T09:05:04.757Z,20.33
2023-01-25T09:08:11.389Z,19.15
2023-01-25T09:11:15.899Z,14.82
2023-01-25T09:14:18.820Z,13.75
2023-01-25T09:17:21.673Z,14.75
2023-01-25T09:20:25.341Z,11.45
2023-01-25T09:23:29.614Z,14.68
2023-01-25T09:26:33.537Z,13.80
2023-01-25T09:29:39.416Z,13.93
2023-01-25T09:32:42.904Z,12.52
2023-01-25T09:35:49.560Z,11.95
2023-01-25T09:38:54.424Z,15.05
2023-01-25T09:42:33.399Z,13.15
2023-01-25T09:45:37.221Z,12.85
2023-01-25T09:48:50.171Z,14.70
2023-01-25T09:52:24.734Z,11.88
2023-01-25T09:55:31.544Z,13.23
2023-01-25T09:58:37.495Z,20.80
2023-01-25T10:01:48.039Z,19.27
2023-01-25T10:04:54.343Z,19.85
2023-01-25T10:08:03.129Z,17.30
2023-01-25T10:11:17.918Z,22.80
2023-01-25T10:14:21.585Z,16.45
2023-01-25T10:17:31.606Z,16.42
2023-01-25T10:20:44.970Z,16.40
2023-01-25T10:24:05.024Z,12.88
2023-01-25T10:27:22.875Z,12.68
2023-01-25T10:30:30.367Z,15.30
2023-01-25T10:33:38.146Z,17.65
2023-01-25T10:36:42.592Z,13.50
2023-01-25T10:39:54.785Z,17.05
2023-01-25T10:43:03.470Z,13.55
2023-01-25T10:46:18.878Z,15.20
2023-01-25T10:49:26.390Z,16.85
2023-01-25T10:52:31.605Z,14.98
2023-01-25T10:55:34.598Z,12.52
2023-01-25T10:58:40.666Z,14.90
2023-01-25T11:01:43.956Z,16.75
2023-01-25T11:04:48.809Z,15.18
2023-01-25T11:07:51.748Z,16.10
2023-01-25T11:10:55.121Z,13.45
2023-01-25T11:13:59.442Z,13.50
2023-01-25T11:17:05.182Z,16.45
2023-01-25T11:20:18.856Z,16.83
2023-01-25T11:23:25.186Z,18.20
2023-01-25T11:26:29.354Z,15.63
2023-01-25T11:29:33.855Z,18.77
2023-01-25T11:32:39.281Z,14.50
2023-01-25T11:35:53.820Z,18.20
2023-01-25T11:39:09.543Z,19.77
2023-01-25T11:42:28.665Z,16.73
2023-01-25T11:46:01.827Z,15.18
2023-01-25T11:49:19.057Z,18.13
2023-01-25T11:52:30.197Z,15.60
2023-01-25T11:55:40.667Z,16.60
2023-01-25T11:59:02.089Z,17.33
2023-01-25T12:02:29.795Z,14.20
2023-01-25T12:05:44.292Z,15.82
2023-01-25T12:09:03.556Z,13.65
2023-01-25T12:12:17.786Z,16.00
2023-01-25T12:15:48.467Z,14.63
2023-01-25T12:19:10.742Z,16.70
2023-01-25T12:22:32.048Z,15.30
2023-01-25T12:25:47.167Z,19.40
2023-01-25T12:28:53.000Z,20.55
2023-01-25T12:32:01.697Z,16.98
2023-01-25T12:35:25.781Z,18.95
2023-01-25T12:38:36.353Z,18.58
2023-01-25T12:41:44.052Z,16.73
2023-01-25T12:44:50.584Z,15.60
2023-01-25T12:47:58.703Z,18.35
2023-01-25T12:51:02.962Z,18.23
2023-01-25T12:54:18.360Z,19.58
2023-01-25T12:57:29.480Z,19.00
2023-01-25T13:00:38.867Z,18.05
2023-01-25T13:04:02.062Z,18.95
2023-01-25T13:07:17.420Z,17.98
2023-01-25T13:10:25.841Z,25.55
2023-01-25T13:13:30.518Z,22.05
2023-01-25T13:16:39.716Z,20.55
2023-01-25T13:19:43.699Z,21.20
2023-01-25T13:22:59.496Z,18.75
2023-01-25T13:26:40.642Z,21.98
2023-01-25T13:29:49.540Z,22.17
2023-01-25T13:32:58.275Z,22.35
2023-01-25T13:36:46.616Z,21.58
2023-01-25T13:39:52.535Z,26.05
2023-01-25T13:43:01.303Z,21.77
2023-01-25T13:46:08.139Z,25.73
2023-01-25T13:49:23.223Z,23.48
2023-01-25T13:52:31.127Z,23.05
2023-01-25T13:55:40.297Z,24.30
2023-01-25T13:58:47.997Z,20.33
2023-01-25T14:01:52.244Z,22.58
2023-01-25T14:04:55.164Z,23.20
2023-01-25T14:07:59.579Z,23.23
2023-01-25T14:11:02.902Z,24.90
2023-01-25T14:14:19.238Z,26.65
2023-01-25T14:17:24.420Z,20.90
2023-01-25T14:20:27.431Z,20.30
2023-01-25T14:23:32.727Z,22.48
2023-01-25T14:26:38.056Z,22.42
2023-01-25T14:29:41.569Z,20.92
2023-01-25T14:32:44.581Z,24.02
2023-01-25T14:36:00.059Z,21.60
2023-01-25T14:39:18.059Z,28.92
2023-01-25T14:42:21.528Z,21.83
2023-01-25T14:45:27.001Z,22.42
2023-01-25T14:48:37.304Z,22.90
2023-01-25T14:51:44.913Z,17.77
2023-01-25T14:54:53.681Z,22.00
2023-01-25T14:58:00.810Z,20.73
2023-01-25T15:01:04.637Z,20.48
2023-01-25T15:04:12.858Z,20.38
2023-01-25T15:07:34.846Z,23.58
2023-01-25T15:10:50.906Z,20.70
2023-01-25T15:14:02.702Z,18.27
2023-01-25T15:17:05.607Z,18.45
2023-01-25T15:20:30.326Z,20.10
2023-01-25T15:23:33.164Z,21.85
2023-01-25T15:26:37.535Z,21.17
2023-01-25T15:29:41.169Z,23.35
2023-01-25T15:32:44.641Z,24.08
2023-01-25T15:35:47.902Z,26.20
2023-01-25T15:38:50.918Z,25.33
2023-01-25T15:41:55.126Z,22.55
2023-01-25T15:44:57.945Z,25.10
2023-01-25T15:48:00.772Z,30.48
2023-01-25T15:51:03.849Z,25.38
2023-01-25T15:54:07.417Z,20.15
2023-01-25T15:57:20.762Z,22.20
2023-01-25T16:00:23.994Z,23.92
2023-01-25T16:03:26.866Z,20.73
2023-01-25T16:06:42.024Z,20.05
2023-01-25T16:09:44.842Z,22.35
2023-01-25T16:12:49.471Z,25.83
2023-01-25T16:15:54.931Z,26.80
2023-01-25T16:18:57.773Z,20.38
2023-01-25T16:22:00.665Z,24.00
2023-01-25T16:25:04.510Z,25.08
2023-01-25T16:28:14.529Z,20.08
2023-01-25T16:31:31.347Z,21.23
2023-01-25T16:34:35.090Z,20.15
2023-01-25T16:37:37.901Z,21.75
2023-01-25T16:40:40.714Z,22.90
2023-01-25T16:43:47.113Z,20.38
2023-01-25T16:46:50.352Z,20.00
2023-01-25T16:49:53.496Z,23.10
2023-01-25T16:52:56.947Z,20.45
2023-01-25T16:56:00.520Z,23.58
2023-01-25T16:59:06.486Z,24.10
2023-01-25T17:02:12.262Z,20.17
2023-01-25T17:05:15.183Z,22.73
2023-01-25T17:08:18.030Z,23.38
2023-01-25T17:11:21.620Z,17.70
2023-01-25T17:14:25.824Z,21.85
2023-01-25T17:17:30.892Z,21.95
2023-01-25T17:20:33.742Z,21.48
2023-01-25T17:23:38.566Z,22.98
2023-01-25T17:26:41.802Z,20.73
2023-01-25T17:29:46.070Z,19.90
2023-01-25T17:32:48.982Z,20.52
2023-01-25T17:35:52.648Z,19.73
2023-01-25T17:38:55.486Z,20.92
2023-01-25T17:41:58.413Z,20.40
2023-01-25T17:45:02.695Z,21.30
2023-01-25T17:48:06.580Z,19.85
2023-01-25T17:51:09.661Z,19.67
2023-01-25T17:54:13.339Z,20.92
2023-01-25T17:57:18.015Z,19.48
2023-01-25T18:00:23.120Z,23.05
2023-01-25T18:03:26.069Z,20.00
2023-01-25T18:06:30.712Z,20.42
2023-01-25T18:09:35.776Z,20.65
2023-01-25T18:12:38.723Z,22.67
2023-01-25T18:15:42.974Z,21.63
2023-01-25T18:18:46.323Z,19.00
2023-01-25T18:21:49.197Z,24.85
2023-01-25T18:24:52.172Z,19.40
2023-01-25T18:27:54.995Z,22.73
2023-01-25T18:31:02.667Z,22.85
2023-01-25T18:34:05.727Z,25.25
2023-01-25T18:37:17.831Z,24.02
2023-01-25T18:40:21.139Z,25.63
2023-01-25T18:43:24.460Z,23.52
2023-01-25T18:46:28.862Z,22.75
2023-01-25T18:49:31.735Z,27.67
2023-01-25T18:52:36.408Z,24.85
2023-01-25T18:55:39.754Z,28.50
2023-01-25T18:58:43.653Z,25.77
2023-01-25T19:01:47.991Z,25.10
2023-01-25T19:04:50.913Z,22.77
2023-01-25T19:07:53.872Z,23.40
2023-01-25T19:11:01.259Z,26.65
2023-01-25T19:14:04.227Z,26.95
2023-01-25T19:17:08.820Z,24.88
2023-01-25T19:20:12.516Z,23.90
2023-01-25T19:23:15.328Z,28.48
2023-01-25T19:26:19.839Z,32.65
2023-01-25T19:29:23.223Z,27.08
2023-01-25T19:32:27.649Z,26.77
2023-01-25T19:35:30.487Z,26.63
2023-01-25T19:38:33.844Z,24.85
2023-01-25T19:41:38.737Z,28.70
2023-01-25T19:44:41.655Z,29.40
2023-01-25T19:47:45.893Z,26.35
2023-01-25T19:50:48.748Z,26.42
2023-01-25T19:53:55.303Z,25.73
2023-01-25T19:56:58.557Z,26.95
2023-01-25T20:00:01.333Z,24.27
2023-01-25T20:03:15.943Z,23.95
2023-01-25T20:06:20.876Z,29.90
2023-01-25T20:09:27.880Z,25.33
2023-01-25T20:12:31.093Z,32.55
2023-01-25T20:15:33.932Z,30.88
2023-01-25T20:18:38.470Z,26.27
2023-01-25T20:21:41.979Z,24.75
2023-01-25T20:24:45.148Z,26.30
2023-01-25T20:27:47.998Z,27.17
2023-01-25T20:30:51.046Z,27.73
2023-01-25T20:33:57.157Z,29.00
2023-01-25T20:37:00.561Z,31.50
2023-01-25T20:40:03.548Z,27.85
2023-01-25T20:43:06.382Z,31.02
2023-01-25T20:46:09.239Z,26.85
2023-01-25T20:49:16.519Z,27.42
2023-01-25T20:52:19.385Z,24.65
2023-01-25T20:55:22.291Z,24.80
2023-01-25T20:58:25.729Z,27.60
2023-01-25T21:01:30.757Z,27.73
2023-01-25T21:04:34.940Z,28.67
2023-01-25T21:07:37.776Z,28.17
2023-01-25T21:10:40.690Z,29.45
2023-01-25T21:13:43.640Z,24.10
2023-01-25T21:16:46.513Z,30.13
2023-01-25T21:19:50.731Z,24.33
2023-01-25T21:22:53.525Z,26.65
2023-01-25T21:25:56.417Z,28.05
2023-01-25T21:29:01.003Z,23.55
2023-01-25T21:32:04.431Z,27.88
2023-01-25T21:35:10.238Z,31.80
2023-01-25T21:38:13.478Z,29.10
2023-01-25T21:41:20.263Z,25.40
2023-01-25T21:44:40.805Z,24.60
2023-01-25T21:47:43.588Z,25.90
2023-01-25T21:51:05.411Z,26.85
2023-01-25T21:54:08.250Z,26.98
2023-01-25T21:57:11.736Z,28.85
2023-01-25T22:00:16.971Z,24.85
2023-01-25T22:03:19.839Z,24.75
2023-01-25T22:06:24.093Z,26.35
2023-01-25T22:09:27.363Z,23.48
2023-01-25T22:12:30.230Z,26.10
2023-01-25T22:15:33.792Z,24.02
2023-01-25T22:18:38.651Z,25.20
2023-01-25T22:21:42.995Z,24.88
2023-01-25T22:24:45.871Z,21.83
2023-01-25T22:27:56.308Z,27.67
2023-01-25T22:30:59.203Z,27.77
2023-01-25T22:34:02.090Z,28.52
2023-01-25T22:37:06.314Z,23.85
2023-01-25T22:40:10.751Z,22.35
2023-01-25T22:43:13.875Z,21.00
2023-01-25T22:46:18.968Z,26.73
2023-01-25T22:49:21.782Z,24.95
2023-01-25T22:52:26.349Z,28.38
2023-01-25T22:55:30.905Z,23.75
2023-01-25T22:58:35.411Z,21.70
2023-01-25T23:01:38.294Z,24.60
2023-01-25T23:04:41.284Z,21.45
2023-01-25T23:07:45.571Z,23.00
2023-01-25T23:10:48.442Z,22.27
2023-01-25T23:14:06.943Z,22.70
2023-01-25T23:17:29.441Z,20.27
2023-01-25T23:20:32.301Z,17.35
2023-01-25T23:23:36.578Z,22.70
2023-01-25T23:26:40.879Z,21.48
2023-01-25T23:29:44.015Z,21.95
2023-01-25T23:32:49.149Z,20.85
2023-01-25T23:35:52.087Z,21.23
2023-01-25T23:38:57.162Z,22.55
2023-01-25T23:42:00.106Z,20.50
2023-01-25T23:45:03.041Z,18.70
2023-01-25T23:48:06.078Z,20.80
2023-01-25T23:51:10.938Z,18.98
2023-01-25T23:54:15.297Z,21.23
2023-01-25T23:57:18.313Z,19.10
